createdAt,value
2019-03-30T00:01:02.957Z,102617.45
2019-03-30T00:03:33.318Z,102623.20
2019-03-30T00:06:03.612Z,102618.77
2019-03-30T00:08:34.032Z,102605.09
2019-03-30T00:11:04.343Z,102606.38
2019-03-30T00:13:34.673Z,102601.55
2019-03-30T00:16:04.977Z,102601.09
2019-03-30T00:18:35.307Z,102600.25
2019-03-30T00:21:05.589Z,102602.87
2019-03-30T00:23:35.955Z,102600.67
2019-03-30T00:26:06.245Z,102599.77
2019-03-30T00:28:36.578Z,102597.13
2019-03-30T00:31:06.854Z,102588.28
2019-03-30T00:33:37.171Z,102586.98
2019-03-30T00:36:07.491Z,102587.91
2019-03-30T00:38:37.781Z,102590.59
2019-03-30T00:41:08.043Z,102592.36
2019-03-30T00:43:38.340Z,102590.16
2019-03-30T00:46:08.631Z,102584.42
2019-03-30T00:48:41.511Z,102586.22
2019-03-30T00:51:11.799Z,102577.41
2019-03-30T00:53:42.159Z,102577.88
2019-03-30T00:56:12.493Z,102577.43
2019-03-30T00:58:42.851Z,102577.38
2019-03-30T01:01:13.175Z,102575.63
2019-03-30T01:03:43.467Z,102574.76
2019-03-30T01:06:13.846Z,102571.27
2019-03-30T01:08:44.155Z,102559.36
2019-03-30T01:11:14.435Z,102565.55
2019-03-30T01:13:44.814Z,102562.48
2019-03-30T01:16:15.108Z,102558.06
2019-03-30T01:18:45.432Z,102560.31
2019-03-30T01:21:15.786Z,102559.45
2019-03-30T01:23:46.088Z,102556.81
2019-03-30T01:26:16.387Z,102554.19
2019-03-30T01:28:46.710Z,102554.19
2019-03-30T01:31:17.030Z,102550.67
2019-03-30T01:33:47.379Z,102547.65
2019-03-30T01:36:17.704Z,102559.13
2019-03-30T01:38:48.056Z,102551.20
2019-03-30T01:41:18.326Z,102551.23
2019-03-30T01:43:48.676Z,102544.19
2019-03-30T01:46:18.954Z,102545.55
2019-03-30T01:48:49.362Z,102541.18
2019-03-30T01:51:19.776Z,102538.56
2019-03-30T01:53:50.096Z,102533.26
2019-03-30T01:56:20.384Z,102538.61
2019-03-30T01:58:50.704Z,102528.94
2019-03-30T02:01:21.026Z,102527.19
2019-03-30T02:03:51.410Z,102527.19
2019-03-30T02:06:21.672Z,102527.17
2019-03-30T02:08:51.981Z,102522.36
2019-03-30T02:11:22.296Z,102518.83
2019-03-30T02:13:52.613Z,102506.97
2019-03-30T02:16:22.910Z,102509.61
2019-03-30T02:18:53.256Z,102516.23
2019-03-30T02:21:23.578Z,102495.56
2019-03-30T02:23:53.856Z,102505.27
2019-03-30T02:26:24.168Z,102505.67
2019-03-30T02:28:54.574Z,102507.02
2019-03-30T02:31:24.881Z,102505.69
2019-03-30T02:33:55.183Z,102496.45
2019-03-30T02:36:25.460Z,102498.20
2019-03-30T02:38:55.773Z,102499.55
2019-03-30T02:41:26.058Z,102491.61
2019-03-30T02:43:56.387Z,102492.53
2019-03-30T02:46:26.646Z,102492.53
2019-03-30T02:48:56.985Z,102489.90
2019-03-30T02:51:27.241Z,102500.89
2019-03-30T02:53:57.599Z,102485.09
2019-03-30T02:56:27.871Z,102485.09
2019-03-30T02:58:58.197Z,102489.05
2019-03-30T03:01:28.541Z,102486.39
2019-03-30T03:03:58.819Z,102477.16
2019-03-30T03:06:29.103Z,102479.81
2019-03-30T03:08:59.410Z,102481.99
2019-03-30T03:11:30.061Z,102474.51
2019-03-30T03:14:00.370Z,102472.33
2019-03-30T03:16:30.659Z,102477.63
2019-03-30T03:19:00.955Z,102482.89
2019-03-30T03:21:31.259Z,102467.97
2019-03-30T03:24:01.560Z,102467.97
2019-03-30T03:26:31.840Z,102468.41
2019-03-30T03:29:02.171Z,102468.41
2019-03-30T03:31:32.581Z,102469.73
2019-03-30T03:34:02.887Z,102456.11
2019-03-30T03:36:33.335Z,102453.91
2019-03-30T03:39:04.453Z,102451.72
2019-03-30T03:41:34.764Z,102440.72
2019-03-30T03:44:05.177Z,102436.78
2019-03-30T03:46:35.455Z,102442.05
2019-03-30T03:49:05.757Z,102431.11
2019-03-30T03:51:36.052Z,102430.22
2019-03-30T03:54:06.705Z,102430.22
2019-03-30T03:56:36.985Z,102424.53
2019-03-30T03:59:07.630Z,102424.53
2019-03-30T04:01:37.950Z,102428.48
2019-03-30T04:04:08.612Z,102428.50
2019-03-30T04:06:39.397Z,102420.16
2019-03-30T04:09:09.674Z,102420.16
2019-03-30T04:11:39.958Z,102418.38
2019-03-30T04:14:10.572Z,102415.33
2019-03-30T04:16:40.855Z,102412.70
2019-03-30T04:19:11.235Z,102402.59
2019-03-30T04:21:44.550Z,102402.59
2019-03-30T04:24:11.872Z,102403.49
2019-03-30T04:26:42.224Z,102406.12
2019-03-30T04:29:12.491Z,102399.97
2019-03-30T04:31:42.848Z,102401.28
2019-03-30T04:34:13.090Z,102381.53
2019-03-30T04:36:43.468Z,102381.53
2019-03-30T04:39:13.794Z,102392.06
2019-03-30T04:41:44.151Z,102392.06
2019-03-30T04:44:14.442Z,102397.33
2019-03-30T04:46:44.715Z,102388.14
2019-03-30T04:49:15.095Z,102386.38
2019-03-30T04:51:56.828Z,102389.44
2019-03-30T04:54:15.742Z,102386.82
2019-03-30T04:56:46.104Z,102391.19
2019-03-30T04:59:16.376Z,102389.87
2019-03-30T05:01:46.692Z,102386.38
2019-03-30T05:04:17.114Z,102393.83
2019-03-30T05:06:47.846Z,102388.55
2019-03-30T05:09:18.154Z,102394.73
2019-03-30T05:11:48.512Z,102396.05
2019-03-30T05:14:18.872Z,102394.70
2019-03-30T05:16:49.206Z,102396.03
2019-03-30T05:19:19.506Z,102394.27
2019-03-30T05:21:49.875Z,102392.97
2019-03-30T05:24:20.166Z,102387.69
2019-03-30T05:26:50.516Z,102389.44
2019-03-30T05:29:20.809Z,102388.97
2019-03-30T05:31:51.151Z,102387.22
2019-03-30T05:34:21.460Z,102392.48
2019-03-30T05:36:51.778Z,102388.09
2019-03-30T05:39:22.128Z,102384.12
2019-03-30T05:41:52.416Z,102388.09
2019-03-30T05:44:22.680Z,102390.70
2019-03-30T05:46:52.970Z,102346.72
2019-03-30T05:49:23.299Z,102380.07
2019-03-30T05:51:53.596Z,102377.33
2019-03-30T05:54:23.952Z,102351.27
2019-03-30T05:56:54.304Z,102375.86
2019-03-30T05:59:24.603Z,102380.14
2019-03-30T06:01:54.930Z,102380.14
2019-03-30T06:04:25.224Z,102375.23
2019-03-30T06:06:55.602Z,102375.23
2019-03-30T06:09:26.060Z,102384.59
2019-03-30T06:11:56.350Z,102388.12
2019-03-30T06:14:26.654Z,102381.97
2019-03-30T06:16:57.005Z,102382.51
2019-03-30T06:19:27.282Z,102393.95
2019-03-30T06:21:57.566Z,102384.20
2019-03-30T06:24:27.954Z,102375.43
2019-03-30T06:26:58.288Z,102375.43
2019-03-30T06:29:28.536Z,102376.69
2019-03-30T06:31:58.847Z,102372.30
2019-03-30T06:34:29.132Z,102371.82
2019-03-30T06:36:59.498Z,102362.11
2019-03-30T06:39:29.852Z,102358.50
2019-03-30T06:42:00.151Z,102362.81
2019-03-30T06:44:30.417Z,102354.31
2019-03-30T06:47:00.697Z,102365.25
2019-03-30T06:49:30.995Z,102367.92
2019-03-30T06:52:01.431Z,102359.12
2019-03-30T06:54:31.763Z,102364.28
2019-03-30T06:57:02.235Z,102359.37
2019-03-30T06:59:32.514Z,102365.50
2019-03-30T07:02:02.865Z,102357.92
2019-03-30T07:04:33.276Z,102354.30
2019-03-30T07:07:03.577Z,102355.42
2019-03-30T07:09:33.904Z,102335.87
2019-03-30T07:12:04.230Z,102359.52
2019-03-30T07:14:34.526Z,102356.20
2019-03-30T07:17:05.147Z,102359.52
2019-03-30T07:19:35.722Z,102353.98
2019-03-30T07:22:06.008Z,102348.08
2019-03-30T07:24:36.381Z,102347.67
2019-03-30T07:27:06.728Z,102347.50
2019-03-30T07:29:37.020Z,102337.92
2019-03-30T07:32:07.306Z,102338.48
2019-03-30T07:34:37.690Z,102346.69
2019-03-30T07:37:08.029Z,102352.72
2019-03-30T07:39:38.436Z,102346.97
2019-03-30T07:42:08.910Z,102345.84
2019-03-30T07:44:39.288Z,102347.81
2019-03-30T07:47:09.598Z,102341.78
2019-03-30T07:49:39.868Z,102344.92
2019-03-30T07:52:10.144Z,102342.13
2019-03-30T07:54:40.432Z,102339.88
2019-03-30T07:57:16.864Z,102338.72
2019-03-30T07:59:41.099Z,102334.50
2019-03-30T08:02:11.427Z,102336.53
2019-03-30T08:04:41.671Z,102334.05
2019-03-30T08:07:11.972Z,102327.53
2019-03-30T08:09:42.331Z,102325.98
2019-03-30T08:12:12.672Z,102329.53
2019-03-30T08:14:45.107Z,102318.91
2019-03-30T08:17:13.325Z,102319.46
2019-03-30T08:19:43.628Z,102319.75
2019-03-30T08:22:13.920Z,102317.11
2019-03-30T08:24:44.282Z,102325.11
2019-03-30T08:27:14.614Z,102323.41
2019-03-30T08:29:44.897Z,102321.84
2019-03-30T08:32:15.272Z,102323.67
2019-03-30T08:34:45.693Z,102320.76
2019-03-30T08:37:16.021Z,102315.52
2019-03-30T08:39:46.344Z,102315.79
2019-03-30T08:42:16.666Z,102326.36
2019-03-30T08:44:47.002Z,102318.66
2019-03-30T08:47:17.283Z,102325.58
2019-03-30T08:49:47.628Z,102321.87
2019-03-30T08:52:17.976Z,102321.41
2019-03-30T08:54:48.282Z,102316.07
2019-03-30T08:57:18.604Z,102318.47
2019-03-30T08:59:48.952Z,102310.06
2019-03-30T09:02:19.257Z,102311.25
2019-03-30T09:04:49.564Z,102315.35
2019-03-30T09:07:19.904Z,102306.30
2019-03-30T09:09:50.202Z,102305.61
2019-03-30T09:12:20.464Z,102305.95
2019-03-30T09:14:50.774Z,102298.25
2019-03-30T09:17:21.088Z,102305.19
2019-03-30T09:19:51.401Z,102293.80
2019-03-30T09:22:21.662Z,102296.98
2019-03-30T09:24:51.978Z,102296.55
2019-03-30T09:27:22.243Z,102292.49
2019-03-30T09:29:52.556Z,102298.84
2019-03-30T09:32:22.840Z,102295.00
2019-03-30T09:34:53.182Z,102291.19
2019-03-30T09:37:23.459Z,102285.52
2019-03-30T09:39:53.754Z,102280.19
2019-03-30T09:42:24.038Z,102275.11
2019-03-30T09:44:54.319Z,102269.73
2019-03-30T09:47:24.616Z,102265.54
2019-03-30T09:49:54.926Z,102267.81
2019-03-30T09:52:25.196Z,102267.26
2019-03-30T09:54:55.591Z,102264.27
2019-03-30T09:57:25.901Z,102263.70
2019-03-30T09:59:56.205Z,102255.80
2019-03-30T10:02:26.468Z,102250.83
2019-03-30T10:04:56.785Z,102256.13
2019-03-30T10:07:27.154Z,102240.89
2019-03-30T10:09:57.469Z,102240.66
2019-03-30T10:12:27.838Z,102232.30
2019-03-30T10:14:58.170Z,102239.20
2019-03-30T10:17:28.489Z,102234.33
2019-03-30T10:20:04.722Z,102227.38
2019-03-30T10:22:29.057Z,102231.00
2019-03-30T10:24:59.497Z,102225.07
2019-03-30T10:27:29.905Z,102225.70
2019-03-30T10:30:00.484Z,102221.05
2019-03-30T10:32:30.548Z,102218.97
2019-03-30T10:35:00.871Z,102220.70
2019-03-30T10:37:31.154Z,102220.28
2019-03-30T10:40:01.476Z,102211.21
2019-03-30T10:42:31.857Z,102216.82
2019-03-30T10:45:02.177Z,102213.16
2019-03-30T10:47:32.504Z,102206.16
2019-03-30T10:50:02.818Z,102203.61
2019-03-30T10:52:33.104Z,102196.41
2019-03-30T10:55:03.397Z,102193.48
2019-03-30T10:57:33.690Z,102194.10
2019-03-30T11:00:04.144Z,102189.21
2019-03-30T11:02:34.474Z,102189.78
2019-03-30T11:05:04.846Z,102181.79
2019-03-30T11:07:35.204Z,102175.20
2019-03-30T11:10:06.158Z,102173.16
2019-03-30T11:12:36.566Z,102170.92
2019-03-30T11:15:07.079Z,102161.52
2019-03-30T11:17:37.406Z,102159.28
2019-03-30T11:20:07.761Z,102163.83
2019-03-30T11:22:38.089Z,102156.98
2019-03-30T11:25:09.200Z,102149.96
2019-03-30T11:27:38.923Z,102153.89
2019-03-30T11:30:09.251Z,102143.95
2019-03-30T11:32:39.706Z,102151.38
2019-03-30T11:35:10.126Z,102143.96
2019-03-30T11:37:40.433Z,102137.43
2019-03-30T11:40:10.744Z,102128.59
2019-03-30T11:42:41.073Z,102133.50
2019-03-30T11:45:11.484Z,102122.52
2019-03-30T11:47:43.424Z,102116.98
2019-03-30T11:50:13.849Z,102114.83
2019-03-30T11:52:44.242Z,102110.67
2019-03-30T11:55:21.785Z,102108.24
2019-03-30T11:57:45.009Z,102106.89
2019-03-30T12:00:15.340Z,102095.61
2019-03-30T12:02:45.760Z,102085.15
2019-03-30T12:05:16.073Z,102091.48
2019-03-30T12:07:46.390Z,102084.06
2019-03-30T12:10:16.791Z,102091.34
2019-03-30T12:12:47.127Z,102071.23
2019-03-30T12:15:17.473Z,102072.04
2019-03-30T12:17:47.859Z,102070.23
2019-03-30T12:20:18.170Z,102069.33
2019-03-30T12:22:48.562Z,102062.90
2019-03-30T12:25:18.871Z,102067.01
2019-03-30T12:27:49.317Z,102059.15
2019-03-30T12:30:19.619Z,102063.19
2019-03-30T12:32:49.943Z,102059.16
2019-03-30T12:35:20.281Z,102063.56
2019-03-30T12:37:50.596Z,102048.55
2019-03-30T12:40:20.871Z,102032.33
2019-03-30T12:42:51.190Z,102048.94
2019-03-30T12:45:21.525Z,102031.71
2019-03-30T12:47:51.838Z,102036.62
2019-03-30T12:50:22.169Z,102026.14
2019-03-30T12:52:52.510Z,102025.16
2019-03-30T12:55:22.867Z,102017.43
2019-03-30T12:57:53.164Z,102019.16
2019-03-30T13:00:23.436Z,102028.82
2019-03-30T13:02:53.757Z,102013.31
2019-03-30T13:05:24.175Z,102025.18
2019-03-30T13:07:54.544Z,102019.39
2019-03-30T13:10:25.019Z,102006.47
2019-03-30T13:12:55.360Z,102001.95
2019-03-30T13:15:25.721Z,102000.63
2019-03-30T13:17:56.116Z,102002.19
2019-03-30T13:20:26.500Z,102004.21
2019-03-30T13:22:56.954Z,101997.87
2019-03-30T13:25:27.383Z,102005.30
2019-03-30T13:27:58.022Z,101997.64
2019-03-30T13:30:28.356Z,101998.71
2019-03-30T13:32:58.676Z,101993.42
2019-03-30T13:35:28.990Z,101996.52
2019-03-30T13:37:59.328Z,101994.69
2019-03-30T13:40:29.689Z,101991.30
2019-03-30T13:42:59.984Z,101973.58
2019-03-30T13:45:30.269Z,101979.81
2019-03-30T13:48:00.631Z,101975.59
2019-03-30T13:50:31.229Z,101975.16
2019-03-30T13:53:01.236Z,101967.42
2019-03-30T13:55:31.579Z,101954.50
2019-03-30T13:58:01.886Z,101961.74
2019-03-30T14:00:32.207Z,101948.95
2019-03-30T14:03:02.554Z,101957.34
2019-03-30T14:05:32.837Z,101965.53
2019-03-30T14:08:03.254Z,101947.08
2019-03-30T14:10:33.548Z,101952.19
2019-03-30T14:13:03.878Z,101948.40
2019-03-30T14:15:34.269Z,101940.53
2019-03-30T14:18:04.692Z,101945.73
2019-03-30T14:20:35.044Z,101938.86
2019-03-30T14:23:05.380Z,101937.17
2019-03-30T14:25:35.678Z,101945.14
2019-03-30T14:28:06.039Z,101929.52
2019-03-30T14:30:36.349Z,101931.02
2019-03-30T14:33:06.670Z,101923.38
2019-03-30T14:35:37.025Z,101918.94
2019-03-30T14:38:07.326Z,101924.03
2019-03-30T14:40:37.616Z,101912.33
2019-03-30T14:43:07.920Z,101912.66
2019-03-30T14:45:38.403Z,101907.30
2019-03-30T14:48:08.686Z,101916.08
2019-03-30T14:50:39.152Z,101909.11
2019-03-30T14:53:09.571Z,101909.69
2019-03-30T14:55:39.901Z,101898.84
2019-03-30T14:58:10.189Z,101902.41
2019-03-30T15:00:40.689Z,101896.60
2019-03-30T15:03:10.837Z,101902.42
2019-03-30T15:05:41.212Z,101897.36
2019-03-30T15:08:11.560Z,101895.47
2019-03-30T15:10:41.870Z,101891.26
2019-03-30T15:13:12.138Z,101900.02
2019-03-30T15:15:42.512Z,101887.05
2019-03-30T15:18:12.934Z,101885.77
2019-03-30T15:20:43.366Z,101892.51
2019-03-30T15:23:13.653Z,101888.41
2019-03-30T15:25:44.032Z,101887.44
2019-03-30T15:28:14.304Z,101892.78
2019-03-30T15:30:44.775Z,101889.02
2019-03-30T15:33:15.063Z,101886.38
2019-03-30T15:35:45.428Z,101890.04
2019-03-30T15:38:15.760Z,101882.49
2019-03-30T15:40:46.114Z,101880.70
2019-03-30T15:43:16.434Z,101886.38
2019-03-30T15:45:46.716Z,101884.72
2019-03-30T15:48:17.101Z,101880.31
2019-03-30T15:50:47.338Z,101884.50
2019-03-30T15:53:17.686Z,101873.80
2019-03-30T15:55:48.014Z,101844.05
2019-03-30T15:58:18.310Z,101878.23
2019-03-30T16:00:48.700Z,101885.88
2019-03-30T16:03:19.010Z,101875.88
2019-03-30T16:05:49.425Z,101885.70
2019-03-30T16:08:19.832Z,101882.71
2019-03-30T16:10:52.276Z,101884.02
2019-03-30T16:13:20.484Z,101892.86
2019-03-30T16:15:50.839Z,101889.04
2019-03-30T16:18:21.142Z,101894.30
2019-03-30T16:20:51.586Z,101888.81
2019-03-30T16:23:21.892Z,101891.30
2019-03-30T16:25:52.232Z,101896.95
2019-03-30T16:28:22.641Z,101906.45
2019-03-30T16:30:53.020Z,101894.98
2019-03-30T16:33:23.386Z,101892.07
2019-03-30T16:35:53.731Z,101893.41
2019-03-30T16:38:24.138Z,101892.88
2019-03-30T16:40:54.466Z,101889.70
2019-03-30T16:43:24.829Z,101891.95
2019-03-30T16:45:55.214Z,101892.61
2019-03-30T16:48:26.048Z,101897.27
2019-03-30T16:50:56.504Z,101895.56
2019-03-30T16:53:26.936Z,101899.47
2019-03-30T16:55:57.345Z,101899.11
2019-03-30T16:58:27.658Z,101883.61
2019-03-30T17:00:58.046Z,101889.83
2019-03-30T17:03:28.414Z,101889.65
2019-03-30T17:05:58.866Z,101890.72
2019-03-30T17:08:29.277Z,101890.09
2019-03-30T17:10:59.655Z,101895.39
2019-03-30T17:13:29.971Z,101900.91
2019-03-30T17:16:00.336Z,101900.78
2019-03-30T17:18:30.656Z,101895.52
2019-03-30T17:21:00.944Z,101891.34
2019-03-30T17:23:31.351Z,101897.63
2019-03-30T17:26:01.839Z,101900.78
2019-03-30T17:28:32.332Z,101896.91
2019-03-30T17:31:02.607Z,101894.16
2019-03-30T17:33:32.968Z,101897.72
2019-03-30T17:36:03.350Z,101899.01
2019-03-30T17:38:34.384Z,101903.80
2019-03-30T17:41:04.876Z,101899.67
2019-03-30T17:43:35.187Z,101908.95
2019-03-30T17:46:05.573Z,101906.16
2019-03-30T17:48:36.018Z,101907.52
2019-03-30T17:51:06.346Z,101908.41
2019-03-30T17:53:39.466Z,101910.45
2019-03-30T17:56:07.345Z,101909.93
2019-03-30T17:58:37.961Z,101912.09
2019-03-30T18:01:08.353Z,101911.23
2019-03-30T18:03:38.920Z,101913.02
2019-03-30T18:06:09.401Z,101917.91
2019-03-30T18:08:53.520Z,101922.92
2019-03-30T18:11:23.820Z,101923.00
2019-03-30T18:13:54.148Z,101925.32
2019-03-30T18:16:24.558Z,101923.48
2019-03-30T18:18:54.868Z,101935.91
2019-03-30T18:21:25.266Z,101941.64
2019-03-30T18:23:55.752Z,101934.80
2019-03-30T18:26:26.135Z,101939.41
2019-03-30T18:28:56.445Z,101941.86
2019-03-30T18:31:26.794Z,101937.30
2019-03-30T18:33:57.247Z,101941.99
2019-03-30T18:36:27.639Z,101948.92
2019-03-30T18:39:09.350Z,101942.97
2019-03-30T18:41:29.310Z,101943.83
2019-03-30T18:44:02.142Z,101953.73
2019-03-30T18:46:30.195Z,101952.61
2019-03-30T18:49:00.564Z,101957.80
2019-03-30T18:51:30.958Z,101958.05
2019-03-30T18:54:01.325Z,101961.34
2019-03-30T18:56:31.831Z,101958.48
2019-03-30T18:59:02.148Z,101964.65
2019-03-30T19:01:32.524Z,101964.85
2019-03-30T19:04:02.879Z,101960.69
2019-03-30T19:06:33.194Z,101960.92
2019-03-30T19:09:04.712Z,101953.20
2019-03-30T19:11:35.144Z,101957.82
2019-03-30T19:14:05.498Z,101963.15
2019-03-30T19:16:35.773Z,101966.80
2019-03-30T19:19:06.054Z,101966.59
2019-03-30T19:21:36.444Z,101968.82
2019-03-30T19:24:06.980Z,101969.80
2019-03-30T19:26:37.316Z,101973.55
2019-03-30T19:29:07.765Z,101971.61
2019-03-30T19:31:38.175Z,101972.98
2019-03-30T19:34:08.500Z,101973.95
2019-03-30T19:36:38.885Z,101974.89
2019-03-30T19:39:09.799Z,101972.63
2019-03-30T19:41:40.186Z,101979.06
2019-03-30T19:44:11.680Z,101980.61
2019-03-30T19:46:42.098Z,102007.25
2019-03-30T19:49:12.457Z,101973.13
2019-03-30T19:51:42.840Z,101982.87
2019-03-30T19:54:13.176Z,101980.22
2019-03-30T19:56:43.564Z,101974.89
2019-03-30T19:59:14.148Z,101984.06
2019-03-30T20:01:44.448Z,101980.50
2019-03-30T20:04:14.783Z,101984.61
2019-03-30T20:06:45.180Z,101987.02
2019-03-30T20:09:15.527Z,101989.18
2019-03-30T20:11:45.904Z,101983.20
2019-03-30T20:14:16.242Z,101986.41
2019-03-30T20:16:46.698Z,101990.58
2019-03-30T20:19:17.020Z,101992.02
2019-03-30T20:21:47.310Z,101991.77
2019-03-30T20:24:17.615Z,101988.38
2019-03-30T20:26:47.938Z,101991.08
2019-03-30T20:29:25.215Z,101993.91
2019-03-30T20:31:48.946Z,101993.05
2019-03-30T20:34:19.558Z,101999.27
2019-03-30T20:36:49.860Z,102009.76
2019-03-30T20:39:20.266Z,102012.69
2019-03-30T20:41:51.159Z,102018.47
2019-03-30T20:44:21.920Z,102022.97
2019-03-30T20:46:52.398Z,102018.21
2019-03-30T20:49:22.900Z,102020.04
2019-03-30T20:51:53.567Z,102018.67
2019-03-30T20:54:24.050Z,102014.35
2019-03-30T20:56:54.464Z,102020.37
2019-03-30T20:59:39.095Z,102014.02
2019-03-30T21:01:55.346Z,102010.66
2019-03-30T21:04:25.744Z,102017.27
2019-03-30T21:06:56.078Z,102013.97
2019-03-30T21:09:26.511Z,102015.59
2019-03-30T21:11:56.991Z,102023.30
2019-03-30T21:14:27.302Z,102023.91
2019-03-30T21:16:57.859Z,102018.38
2019-03-30T21:19:28.195Z,102019.84
2019-03-30T21:21:58.579Z,102020.52
2019-03-30T21:24:29.037Z,102017.57
2019-03-30T21:26:59.367Z,102016.45
2019-03-30T21:29:29.678Z,102022.41
2019-03-30T21:31:59.992Z,102021.69
2019-03-30T21:34:30.325Z,102025.38
2019-03-30T21:37:00.766Z,102021.05
2019-03-30T21:39:31.035Z,102028.17
2019-03-30T21:42:01.670Z,102024.83
2019-03-30T21:44:32.298Z,102024.94
2019-03-30T21:47:02.979Z,102028.55
2019-03-30T21:49:33.307Z,102028.45
2019-03-30T21:52:03.687Z,102038.78
2019-03-30T21:54:33.993Z,102031.36
2019-03-30T21:57:04.329Z,102032.20
2019-03-30T21:59:34.695Z,102032.02
2019-03-30T22:02:05.087Z,102030.23
2019-03-30T22:04:35.475Z,102036.65
2019-03-30T22:07:05.766Z,102035.05
2019-03-30T22:09:36.150Z,102038.24
2019-03-30T22:12:06.511Z,102040.05
2019-03-30T22:14:36.843Z,102034.44
2019-03-30T22:17:07.141Z,102051.84
2019-03-30T22:19:37.518Z,102051.23
2019-03-30T22:22:07.857Z,102053.00
2019-03-30T22:24:38.298Z,102054.88
2019-03-30T22:27:08.645Z,102059.52
2019-03-30T22:29:39.132Z,102057.45
2019-03-30T22:32:09.407Z,102066.38
2019-03-30T22:34:39.724Z,102067.30
2019-03-30T22:37:10.042Z,102059.41
2019-03-30T22:39:40.463Z,102053.36
2019-03-30T22:42:10.803Z,102063.01
2019-03-30T22:44:41.180Z,102058.33
2019-03-30T22:47:11.558Z,102054.37
2019-03-30T22:49:41.870Z,102057.63
2019-03-30T22:52:12.223Z,102049.83
2019-03-30T22:54:42.534Z,102054.34
2019-03-30T22:57:12.898Z,102051.44
2019-03-30T22:59:43.238Z,102050.20
2019-03-30T23:02:13.594Z,102054.66
2019-03-30T23:04:43.898Z,102048.57
2019-03-30T23:07:14.332Z,102050.44
2019-03-30T23:09:44.672Z,102051.90
2019-03-30T23:12:14.973Z,102047.14
2019-03-30T23:14:45.320Z,102052.12
2019-03-30T23:17:15.625Z,102052.69
2019-03-30T23:19:45.971Z,102052.34
2019-03-30T23:22:16.300Z,102055.52
2019-03-30T23:24:46.642Z,102051.22
2019-03-30T23:27:16.999Z,102046.84
2019-03-30T23:29:47.365Z,102053.08
2019-03-30T23:32:17.719Z,102050.94
2019-03-30T23:34:48.044Z,102052.28
2019-03-30T23:37:18.344Z,102055.38
2019-03-30T23:39:48.692Z,102060.23
2019-03-30T23:42:19.053Z,102055.91
2019-03-30T23:44:49.420Z,102062.14
2019-03-30T23:47:19.877Z,102061.28
2019-03-30T23:49:50.195Z,102060.07
2019-03-30T23:52:20.511Z,102062.67
2019-03-30T23:54:50.900Z,102061.47
2019-03-30T23:57:21.251Z,102065.48
2019-03-30T23:59:51.575Z,102073.03
